createdAt,value
2022-07-28T00:01:38.230Z,94518.97
2022-07-28T00:03:40.006Z,94521.00
2022-07-28T00:05:41.753Z,94524.69
2022-07-28T00:07:43.863Z,94523.19
2022-07-28T00:09:45.504Z,94530.66
2022-07-28T00:11:54.384Z,94533.34
2022-07-28T00:13:56.647Z,94547.19
2022-07-28T00:15:58.396Z,94557.22
2022-07-28T00:18:00.854Z,94559.38
2022-07-28T00:20:02.693Z,94577.00
2022-07-28T00:22:04.745Z,94573.06
2022-07-28T00:24:06.777Z,94566.38
2022-07-28T00:26:09.527Z,94539.13
2022-07-28T00:28:11.143Z,94532.00
2022-07-28T00:30:12.967Z,94519.28
2022-07-28T00:32:15.042Z,94516.78
2022-07-28T00:34:17.366Z,94519.47
2022-07-28T00:36:19.200Z,94515.47
2022-07-28T00:38:26.396Z,94500.63
2022-07-28T00:40:47.013Z,94499.34
2022-07-28T00:42:48.715Z,94501.66
2022-07-28T00:44:50.393Z,94506.66
2022-07-28T00:46:52.061Z,94518.81
2022-07-28T00:48:55.019Z,94536.81
2022-07-28T00:50:56.809Z,94556.91
2022-07-28T00:52:58.816Z,94552.75
2022-07-28T00:55:01.022Z,94553.06
2022-07-28T00:57:02.924Z,94547.56
2022-07-28T00:59:04.893Z,94557.63
2022-07-28T01:01:11.517Z,94560.25
2022-07-28T01:03:13.337Z,94566.34
2022-07-28T01:05:15.970Z,94569.19
2022-07-28T01:07:28.086Z,94564.00
2022-07-28T01:09:29.718Z,94571.06
2022-07-28T01:11:42.528Z,94580.06
2022-07-28T01:14:08.943Z,94578.25
2022-07-28T01:16:10.833Z,94578.94
2022-07-28T01:18:21.238Z,94573.91
2022-07-28T01:20:36.278Z,94570.91
2022-07-28T01:22:41.613Z,94558.38
2022-07-28T01:24:51.493Z,94549.28
2022-07-28T01:27:11.453Z,94542.31
2022-07-28T01:29:32.929Z,94549.59
2022-07-28T01:31:59.149Z,94547.81
2022-07-28T01:34:06.175Z,94531.78
2022-07-28T01:36:14.811Z,94539.81
2022-07-28T01:38:17.718Z,94540.84
2022-07-28T01:40:23.240Z,94540.53
2022-07-28T01:42:28.463Z,94538.66
2022-07-28T01:44:30.208Z,94541.34
2022-07-28T01:46:32.673Z,94540.44
2022-07-28T01:48:35.116Z,94537.44
2022-07-28T01:50:37.665Z,94538.25
2022-07-28T01:52:41.339Z,94538.88
2022-07-28T01:54:43.869Z,94534.78
2022-07-28T01:56:46.580Z,94535.19
2022-07-28T01:58:49.279Z,94535.34
2022-07-28T02:00:51.621Z,94536.66
2022-07-28T02:02:54.629Z,94542.00
2022-07-28T02:04:57.513Z,94538.34
2022-07-28T02:06:59.780Z,94550.72
2022-07-28T02:09:04.000Z,94549.88
2022-07-28T02:11:24.095Z,94548.16
2022-07-28T02:13:25.867Z,94547.06
2022-07-28T02:15:29.944Z,94546.72
2022-07-28T02:17:32.266Z,94553.22
2022-07-28T02:19:34.665Z,94561.59
2022-07-28T02:21:36.927Z,94556.41
2022-07-28T02:23:39.579Z,94554.66
2022-07-28T02:25:41.899Z,94552.00
2022-07-28T02:28:02.270Z,94563.47
2022-07-28T02:30:16.625Z,94548.25
2022-07-28T02:32:50.195Z,94553.47
2022-07-28T02:34:52.556Z,94561.09
2022-07-28T02:36:58.014Z,94554.13
2022-07-28T02:39:08.132Z,94559.63
2022-07-28T02:41:28.737Z,94560.81
2022-07-28T02:43:49.842Z,94553.56
2022-07-28T02:45:54.122Z,94551.03
2022-07-28T02:48:06.067Z,94554.84
2022-07-28T02:50:08.546Z,94557.16
2022-07-28T02:52:11.519Z,94557.53
2022-07-28T02:54:13.875Z,94563.41
2022-07-28T02:56:17.731Z,94566.66
2022-07-28T02:58:21.052Z,94573.00
2022-07-28T03:00:22.902Z,94566.38
2022-07-28T03:02:24.929Z,94566.72
2022-07-28T03:04:45.908Z,94555.31
2022-07-28T03:06:47.698Z,94565.94
2022-07-28T03:08:53.062Z,94565.34
2022-07-28T03:11:12.213Z,94564.72
2022-07-28T03:13:14.630Z,94563.63
2022-07-28T03:15:16.421Z,94558.16
2022-07-28T03:17:19.301Z,94554.19
2022-07-28T03:19:21.071Z,94549.72
2022-07-28T03:21:22.758Z,94557.50
2022-07-28T03:23:29.059Z,94553.81
2022-07-28T03:25:44.899Z,94553.47
2022-07-28T03:27:48.578Z,94549.72
2022-07-28T03:30:04.109Z,94549.72
2022-07-28T03:32:06.911Z,94543.25
2022-07-28T03:34:11.823Z,94545.84
2022-07-28T03:36:16.534Z,94550.84
2022-07-28T03:38:23.617Z,94546.50
2022-07-28T03:40:29.233Z,94523.53
2022-07-28T03:42:31.001Z,94532.81
2022-07-28T03:44:33.139Z,94520.50
2022-07-28T03:46:35.949Z,94530.69
2022-07-28T03:48:37.675Z,94534.78
2022-07-28T03:50:39.419Z,94516.78
2022-07-28T03:52:41.116Z,94514.03
2022-07-28T03:54:43.060Z,94509.25
2022-07-28T03:56:44.753Z,94501.81
2022-07-28T03:58:46.401Z,94492.28
2022-07-28T04:00:49.476Z,94486.13
2022-07-28T04:02:51.592Z,94485.28
2022-07-28T04:04:53.258Z,94493.00
2022-07-28T04:06:55.122Z,94480.44
2022-07-28T04:08:57.692Z,94495.81
2022-07-28T04:10:59.368Z,94500.63
2022-07-28T04:13:01.097Z,94500.84
2022-07-28T04:15:02.799Z,94510.44
2022-07-28T04:17:04.731Z,94502.63
2022-07-28T04:19:06.481Z,94496.69
2022-07-28T04:21:08.153Z,94485.66
2022-07-28T04:23:10.138Z,94490.94
2022-07-28T04:25:15.104Z,94498.75
2022-07-28T04:27:16.855Z,94513.09
2022-07-28T04:29:27.254Z,94537.00
2022-07-28T04:31:29.404Z,94543.13
2022-07-28T04:33:31.186Z,94555.31
2022-07-28T04:35:34.811Z,94565.16
2022-07-28T04:37:36.533Z,94573.28
2022-07-28T04:39:38.341Z,94576.97
2022-07-28T04:41:41.838Z,94584.22
2022-07-28T04:43:43.534Z,94577.16
2022-07-28T04:45:53.741Z,94561.31
2022-07-28T04:47:56.329Z,94566.84
2022-07-28T04:49:58.172Z,94560.03
2022-07-28T04:51:59.861Z,94572.41
2022-07-28T04:54:01.588Z,94593.81
2022-07-28T04:56:03.488Z,94597.56
2022-07-28T04:58:06.267Z,94583.13
2022-07-28T05:00:13.701Z,94578.13
2022-07-28T05:02:15.648Z,94580.34
2022-07-28T05:04:18.978Z,94568.91
2022-07-28T05:06:21.099Z,94562.97
2022-07-28T05:08:26.103Z,94558.56
2022-07-28T05:10:28.328Z,94559.94
2022-07-28T05:12:30.204Z,94570.53
2022-07-28T05:14:31.921Z,94567.38
2022-07-28T05:16:33.617Z,94565.19
2022-07-28T05:18:35.834Z,94575.03
2022-07-28T05:20:37.508Z,94580.25
2022-07-28T05:22:46.904Z,94581.53
2022-07-28T05:24:48.567Z,94590.13
2022-07-28T05:26:50.231Z,94588.00
2022-07-28T05:28:51.818Z,94598.00
2022-07-28T05:30:54.239Z,94608.28
2022-07-28T05:32:59.285Z,94601.00
2022-07-28T05:35:00.993Z,94600.75
2022-07-28T05:37:02.996Z,94602.00
2022-07-28T05:39:04.645Z,94591.56
2022-07-28T05:41:06.710Z,94586.31
2022-07-28T05:43:08.364Z,94585.72
2022-07-28T05:45:15.661Z,94597.63
2022-07-28T05:47:18.843Z,94600.72
2022-07-28T05:49:22.200Z,94592.38
2022-07-28T05:51:23.879Z,94589.88
2022-07-28T05:53:25.658Z,94583.09
2022-07-28T05:55:27.386Z,94577.13
2022-07-28T05:57:29.022Z,94587.50
2022-07-28T05:59:30.687Z,94572.09
2022-07-28T06:01:37.193Z,94572.78
2022-07-28T06:03:42.361Z,94573.41
2022-07-28T06:06:00.504Z,94575.41
2022-07-28T06:08:06.163Z,94574.31
2022-07-28T06:10:08.562Z,94579.50
2022-07-28T06:12:10.292Z,94580.72
2022-07-28T06:14:12.362Z,94575.41
2022-07-28T06:16:14.383Z,94573.06
2022-07-28T06:18:16.497Z,94573.31
2022-07-28T06:20:21.965Z,94569.88
2022-07-28T06:22:23.627Z,94565.19
2022-07-28T06:24:25.360Z,94558.56
2022-07-28T06:26:27.042Z,94569.66
2022-07-28T06:28:28.740Z,94574.44
2022-07-28T06:30:31.406Z,94587.91
2022-07-28T06:32:33.090Z,94593.38
2022-07-28T06:34:34.752Z,94592.81
2022-07-28T06:36:36.419Z,94581.03
2022-07-28T06:38:38.113Z,94582.97
2022-07-28T06:40:39.737Z,94580.03
2022-07-28T06:42:42.321Z,94582.00
2022-07-28T06:44:58.256Z,94576.41
2022-07-28T06:47:00.853Z,94579.94
2022-07-28T06:49:04.293Z,94579.41
2022-07-28T06:51:06.296Z,94583.16
2022-07-28T06:53:07.965Z,94575.97
2022-07-28T06:55:09.960Z,94576.50
2022-07-28T06:57:13.742Z,94566.00
2022-07-28T06:59:16.062Z,94580.03
2022-07-28T07:01:18.184Z,94583.56
2022-07-28T07:03:19.826Z,94581.06
2022-07-28T07:05:21.603Z,94579.22
2022-07-28T07:07:23.667Z,94583.56
2022-07-28T07:09:25.373Z,94580.34
2022-07-28T07:11:27.335Z,94587.03
2022-07-28T07:13:29.375Z,94583.38
2022-07-28T07:15:31.072Z,94581.09
2022-07-28T07:17:39.478Z,94576.56
2022-07-28T07:19:41.166Z,94581.00
2022-07-28T07:21:42.923Z,94589.28
2022-07-28T07:23:44.626Z,94586.53
2022-07-28T07:25:46.996Z,94584.81
2022-07-28T07:27:48.811Z,94588.13
2022-07-28T07:29:50.484Z,94588.94
2022-07-28T07:31:52.824Z,94595.31
2022-07-28T07:33:55.486Z,94594.66
2022-07-28T07:35:57.144Z,94591.03
2022-07-28T07:37:58.883Z,94592.19
2022-07-28T07:40:01.577Z,94602.75
2022-07-28T07:42:03.299Z,94598.69
2022-07-28T07:44:05.270Z,94602.78
2022-07-28T07:46:07.583Z,94604.97
2022-07-28T07:48:09.374Z,94609.75
2022-07-28T07:50:11.186Z,94617.28
2022-07-28T07:52:13.484Z,94615.78
2022-07-28T07:54:15.423Z,94623.09
2022-07-28T07:56:18.502Z,94619.75
2022-07-28T07:58:20.237Z,94623.31
2022-07-28T08:00:29.218Z,94628.75
2022-07-28T08:02:31.292Z,94628.91
2022-07-28T08:04:37.655Z,94632.50
2022-07-28T08:06:40.448Z,94631.69
2022-07-28T08:08:46.472Z,94635.69
2022-07-28T08:10:51.238Z,94623.66
2022-07-28T08:12:52.909Z,94626.69
2022-07-28T08:14:55.062Z,94627.44
2022-07-28T08:16:58.586Z,94625.50
2022-07-28T08:19:00.414Z,94621.91
2022-07-28T08:21:02.168Z,94623.94
2022-07-28T08:23:04.097Z,94632.63
2022-07-28T08:25:06.362Z,94630.13
2022-07-28T08:27:08.264Z,94628.81
2022-07-28T08:29:10.212Z,94636.78
2022-07-28T08:31:11.903Z,94635.22
2022-07-28T08:33:13.671Z,94644.94
2022-07-28T08:35:32.497Z,94646.13
2022-07-28T08:37:35.694Z,94649.56
2022-07-28T08:39:37.536Z,94645.84
2022-07-28T08:41:45.741Z,94651.25
2022-07-28T08:43:47.927Z,94648.94
2022-07-28T08:45:57.803Z,94648.81
2022-07-28T08:48:09.342Z,94650.31
2022-07-28T08:50:15.185Z,94652.28
2022-07-28T08:52:19.332Z,94648.59
2022-07-28T08:54:25.267Z,94659.09
2022-07-28T08:56:28.618Z,94657.81
2022-07-28T08:58:31.869Z,94657.56
2022-07-28T09:00:33.756Z,94662.13
2022-07-28T09:02:41.058Z,94658.13
2022-07-28T09:04:45.146Z,94657.00
2022-07-28T09:06:47.475Z,94660.72
2022-07-28T09:08:49.368Z,94657.59
2022-07-28T09:10:51.580Z,94659.84
2022-07-28T09:12:53.256Z,94657.28
2022-07-28T09:14:54.889Z,94663.41
2022-07-28T09:17:01.893Z,94657.34
2022-07-28T09:19:03.616Z,94655.13
2022-07-28T09:21:05.312Z,94655.47
2022-07-28T09:23:42.792Z,94647.69
2022-07-28T09:25:31.222Z,94653.66
2022-07-28T09:27:45.157Z,94652.31
2022-07-28T09:29:49.346Z,94639.47
2022-07-28T09:31:56.932Z,94633.78
2022-07-28T09:34:05.849Z,94645.59
2022-07-28T09:36:15.264Z,94653.44
2022-07-28T09:38:17.166Z,94660.47
2022-07-28T09:40:22.392Z,94651.41
2022-07-28T09:42:25.124Z,94650.34
2022-07-28T09:44:27.779Z,94641.78
2022-07-28T09:46:30.686Z,94637.81
2022-07-28T09:48:32.789Z,94637.84
2022-07-28T09:50:34.518Z,94639.53
2022-07-28T09:52:38.606Z,94650.03
2022-07-28T09:54:59.941Z,94660.91
2022-07-28T09:57:01.715Z,94663.97
2022-07-28T09:59:03.827Z,94658.75
2022-07-28T10:01:12.384Z,94656.16
2022-07-28T10:03:25.590Z,94654.09
2022-07-28T10:05:39.816Z,94651.69
2022-07-28T10:07:51.165Z,94649.25
2022-07-28T10:09:57.991Z,94647.06
2022-07-28T10:12:16.146Z,94648.72
2022-07-28T10:14:21.531Z,94657.09
2022-07-28T10:16:28.852Z,94649.94
2022-07-28T10:18:30.627Z,94645.03
2022-07-28T10:20:33.636Z,94643.72
2022-07-28T10:22:42.881Z,94639.19
2022-07-28T10:24:46.817Z,94644.03
2022-07-28T10:26:49.400Z,94651.28
2022-07-28T10:28:52.292Z,94639.94
2022-07-28T10:30:55.625Z,94640.50
2022-07-28T10:33:03.391Z,94643.88
2022-07-28T10:35:08.255Z,94645.44
2022-07-28T10:37:10.930Z,94635.97
2022-07-28T10:39:14.303Z,94635.47
2022-07-28T10:41:15.862Z,94637.38
2022-07-28T10:43:17.562Z,94632.88
2022-07-28T10:45:19.410Z,94638.81
2022-07-28T10:47:21.720Z,94629.44
2022-07-28T10:49:27.591Z,94628.69
2022-07-28T10:51:34.497Z,94628.19
2022-07-28T10:53:58.736Z,94620.09
2022-07-28T10:56:03.895Z,94613.88
2022-07-28T10:58:24.999Z,94612.78
2022-07-28T11:00:27.552Z,94597.97
2022-07-28T11:02:51.807Z,94610.13
2022-07-28T11:04:55.779Z,94604.19
2022-07-28T11:07:13.484Z,94608.22
2022-07-28T11:09:17.977Z,94599.34
2022-07-28T11:11:59.064Z,94600.16
2022-07-28T11:14:43.533Z,94590.44
2022-07-28T11:16:45.411Z,94595.00
2022-07-28T11:19:04.615Z,94595.19
2022-07-28T11:21:10.079Z,94581.66
2022-07-28T11:23:31.358Z,94576.47
2022-07-28T11:25:33.065Z,94576.69
2022-07-28T11:27:40.852Z,94559.88
2022-07-28T11:29:47.625Z,94552.84
2022-07-28T11:31:49.934Z,94553.38
2022-07-28T11:33:54.643Z,94548.56
2022-07-28T11:35:57.703Z,94551.25
2022-07-28T11:38:02.143Z,94557.81
2022-07-28T11:40:42.937Z,94560.78
2022-07-28T11:42:44.561Z,94545.59
2022-07-28T11:44:48.447Z,94550.16
2022-07-28T11:46:52.702Z,94543.69
2022-07-28T11:49:14.959Z,94544.53
2022-07-28T11:51:18.733Z,94549.09
2022-07-28T11:53:23.935Z,94547.25
2022-07-28T11:55:55.466Z,94547.56
2022-07-28T11:57:53.502Z,94552.97
2022-07-28T11:59:57.336Z,94554.59
2022-07-28T12:01:59.006Z,94549.97
2022-07-28T12:04:01.447Z,94544.75
2022-07-28T12:06:03.128Z,94552.50
2022-07-28T12:08:05.114Z,94554.69
2022-07-28T12:10:51.804Z,94546.63
2022-07-28T12:12:53.262Z,94552.84
2022-07-28T12:14:56.391Z,94546.41
2022-07-28T12:16:58.119Z,94545.63
2022-07-28T12:19:01.799Z,94540.81
2022-07-28T12:21:05.354Z,94537.00
2022-07-28T12:23:08.050Z,94541.78
2022-07-28T12:25:13.243Z,94542.38
2022-07-28T12:27:16.613Z,94542.41
2022-07-28T12:29:20.699Z,94535.59
2022-07-28T12:31:27.398Z,94539.00
2022-07-28T12:33:30.314Z,94542.72
2022-07-28T12:35:31.991Z,94542.72
2022-07-28T12:37:33.657Z,94533.78
2022-07-28T12:39:39.353Z,94537.81
2022-07-28T12:41:41.045Z,94532.41
2022-07-28T12:43:50.280Z,94535.44
2022-07-28T12:45:52.391Z,94530.94
2022-07-28T12:47:54.283Z,94530.88
2022-07-28T12:50:14.477Z,94530.63
2022-07-28T12:52:18.146Z,94529.81
2022-07-28T12:54:34.547Z,94525.22
2022-07-28T12:56:52.130Z,94528.44
2022-07-28T12:59:08.261Z,94530.88
2022-07-28T13:01:12.410Z,94520.88
2022-07-28T13:03:25.365Z,94529.22
2022-07-28T13:05:53.599Z,94526.91
2022-07-28T13:08:05.179Z,94524.03
2022-07-28T13:10:11.436Z,94522.63
2022-07-28T13:12:20.195Z,94524.88
2022-07-28T13:14:44.495Z,94527.81
2022-07-28T13:16:57.469Z,94510.69
2022-07-28T13:19:03.912Z,94513.91
2022-07-28T13:21:05.590Z,94513.06
2022-07-28T13:23:07.247Z,94507.56
2022-07-28T13:25:11.054Z,94504.78
2022-07-28T13:27:12.706Z,94507.47
2022-07-28T13:29:14.620Z,94499.53
2022-07-28T13:31:16.328Z,94503.28
2022-07-28T13:33:19.004Z,94505.63
2022-07-28T13:35:23.060Z,94506.31
2022-07-28T13:37:24.740Z,94498.13
2022-07-28T13:39:26.439Z,94505.78
2022-07-28T13:41:28.275Z,94508.50
2022-07-28T13:43:50.196Z,94518.66
2022-07-28T13:45:55.154Z,94518.31
2022-07-28T13:47:59.968Z,94523.13
2022-07-28T13:50:01.719Z,94523.06
2022-07-28T13:52:07.203Z,94522.66
2022-07-28T13:54:15.261Z,94519.16
2022-07-28T13:56:17.165Z,94521.50
2022-07-28T13:58:18.825Z,94522.66
2022-07-28T14:00:24.917Z,94516.38
2022-07-28T14:02:26.779Z,94509.94
2022-07-28T14:04:28.538Z,94520.41
2022-07-28T14:06:30.422Z,94510.56
2022-07-28T14:08:32.807Z,94511.75
2022-07-28T14:10:35.888Z,94511.63
2022-07-28T14:12:37.798Z,94506.66
2022-07-28T14:14:39.546Z,94513.09
2022-07-28T14:16:49.748Z,94507.75
2022-07-28T14:18:51.624Z,94502.00
2022-07-28T14:20:53.266Z,94500.25
2022-07-28T14:22:54.931Z,94500.19
2022-07-28T14:24:56.581Z,94497.25
2022-07-28T14:26:58.213Z,94504.28
2022-07-28T14:29:00.111Z,94502.25
2022-07-28T14:31:02.068Z,94496.13
2022-07-28T14:33:06.375Z,94502.03
2022-07-28T14:35:08.342Z,94501.28
2022-07-28T14:37:09.948Z,94496.28
2022-07-28T14:39:12.657Z,94491.25
2022-07-28T14:41:15.093Z,94484.25
2022-07-28T14:43:17.032Z,94479.75
2022-07-28T14:45:18.849Z,94485.72
2022-07-28T14:47:22.323Z,94487.63
2022-07-28T14:49:25.029Z,94500.03
2022-07-28T14:51:26.871Z,94496.84
2022-07-28T14:53:28.498Z,94493.88
2022-07-28T14:55:30.732Z,94492.50
2022-07-28T14:57:52.166Z,94490.63
2022-07-28T14:59:54.810Z,94494.94
2022-07-28T15:01:56.658Z,94493.34
2022-07-28T15:03:58.443Z,94503.53
2022-07-28T15:06:01.757Z,94500.06
2022-07-28T15:08:03.424Z,94510.81
2022-07-28T15:10:06.162Z,94508.09
2022-07-28T15:12:08.156Z,94508.13
2022-07-28T15:14:09.840Z,94514.03
2022-07-28T15:16:11.559Z,94519.13
2022-07-28T15:18:13.375Z,94529.38
2022-07-28T15:20:15.394Z,94512.41
2022-07-28T15:22:17.036Z,94515.63
2022-07-28T15:24:19.413Z,94516.19
2022-07-28T15:26:21.165Z,94518.09
2022-07-28T15:28:22.850Z,94512.72
2022-07-28T15:30:24.619Z,94509.47
2022-07-28T15:32:28.188Z,94500.88
2022-07-28T15:34:30.479Z,94493.59
2022-07-28T15:36:33.825Z,94484.44
2022-07-28T15:38:35.431Z,94488.19
2022-07-28T15:40:38.359Z,94483.09
2022-07-28T15:42:40.086Z,94499.25
2022-07-28T15:44:41.913Z,94503.31
2022-07-28T15:46:44.031Z,94505.69
2022-07-28T15:48:48.511Z,94510.81
2022-07-28T15:50:50.250Z,94507.59
2022-07-28T15:52:51.924Z,94515.41
2022-07-28T15:54:53.594Z,94515.09
2022-07-28T15:56:55.369Z,94524.00
2022-07-28T15:58:57.983Z,94527.25
2022-07-28T16:01:01.719Z,94514.59
2022-07-28T16:03:04.107Z,94503.56
2022-07-28T16:05:06.066Z,94495.19
2022-07-28T16:07:19.681Z,94507.84
2022-07-28T16:09:24.135Z,94504.34
2022-07-28T16:11:25.879Z,94514.31
2022-07-28T16:13:36.012Z,94509.75
2022-07-28T16:15:39.362Z,94524.25
2022-07-28T16:17:42.202Z,94537.19
2022-07-28T16:19:49.641Z,94545.53
2022-07-28T16:21:51.967Z,94561.16
2022-07-28T16:23:53.588Z,94568.94
2022-07-28T16:25:55.744Z,94571.63
2022-07-28T16:27:57.898Z,94579.44
2022-07-28T16:29:59.618Z,94583.22
2022-07-28T16:32:03.686Z,94581.59
2022-07-28T16:34:05.341Z,94597.72
2022-07-28T16:36:07.065Z,94596.13
2022-07-28T16:38:08.708Z,94596.13
2022-07-28T16:40:11.000Z,94603.63
2022-07-28T16:42:12.649Z,94604.19
2022-07-28T16:44:16.122Z,94612.00
2022-07-28T16:46:19.387Z,94611.19
2022-07-28T16:48:21.088Z,94614.16
2022-07-28T16:50:24.086Z,94606.63
2022-07-28T16:52:27.446Z,94605.00
2022-07-28T16:54:28.991Z,94614.16
2022-07-28T16:56:30.641Z,94608.75
2022-07-28T16:58:32.875Z,94609.31
2022-07-28T17:00:34.562Z,94617.94
2022-07-28T17:02:36.212Z,94622.22
2022-07-28T17:04:37.930Z,94623.84
2022-07-28T17:06:39.739Z,94632.41
2022-07-28T17:08:41.401Z,94633.50
2022-07-28T17:10:43.101Z,94631.06
2022-07-28T17:12:44.751Z,94639.94
2022-07-28T17:14:51.633Z,94640.47
2022-07-28T17:16:53.282Z,94649.59
2022-07-28T17:18:54.982Z,94651.16
2022-07-28T17:20:56.658Z,94651.16
2022-07-28T17:22:58.885Z,94651.41
2022-07-28T17:25:00.563Z,94654.91
2022-07-28T17:27:36.531Z,94653.00
2022-07-28T17:29:23.918Z,94656.22
2022-07-28T17:31:25.815Z,94653.81
2022-07-28T17:33:27.912Z,94654.59
2022-07-28T17:35:35.153Z,94656.47
2022-07-28T17:37:37.325Z,94649.75
2022-07-28T17:39:38.988Z,94646.22
2022-07-28T17:41:40.638Z,94643.78
2022-07-28T17:43:45.469Z,94638.34
2022-07-28T17:45:47.808Z,94640.63
2022-07-28T17:47:49.465Z,94651.84
2022-07-28T17:49:51.504Z,94655.25
2022-07-28T17:51:54.354Z,94661.69
2022-07-28T17:53:55.998Z,94657.50
2022-07-28T17:56:01.329Z,94664.56
2022-07-28T17:58:18.675Z,94682.19
2022-07-28T18:00:23.842Z,94671.00
2022-07-28T18:02:25.696Z,94682.19
2022-07-28T18:04:27.394Z,94679.22
2022-07-28T18:06:34.108Z,94690.19
2022-07-28T18:08:36.609Z,94689.06
2022-07-28T18:10:38.961Z,94680.88
2022-07-28T18:12:40.732Z,94677.97
2022-07-28T18:14:42.362Z,94678.38
2022-07-28T18:16:44.453Z,94665.59
2022-07-28T18:18:46.113Z,94670.81
2022-07-28T18:20:48.047Z,94660.22
2022-07-28T18:22:50.600Z,94657.84
2022-07-28T18:24:52.385Z,94649.34
2022-07-28T18:26:54.804Z,94637.94
2022-07-28T18:28:56.481Z,94632.19
2022-07-28T18:30:58.195Z,94634.00
2022-07-28T18:33:01.881Z,94631.06
2022-07-28T18:35:03.557Z,94629.91
2022-07-28T18:37:05.186Z,94630.19
2022-07-28T18:39:06.905Z,94646.41
2022-07-28T18:41:08.543Z,94646.97
2022-07-28T18:43:13.066Z,94657.41
2022-07-28T18:45:16.047Z,94662.28
2022-07-28T18:47:17.672Z,94663.41
2022-07-28T18:49:20.125Z,94660.47
2022-07-28T18:51:22.019Z,94666.81
2022-07-28T18:53:28.824Z,94653.03
2022-07-28T18:55:30.614Z,94647.59
2022-07-28T18:57:32.280Z,94646.88
2022-07-28T18:59:33.919Z,94637.19
2022-07-28T19:01:35.775Z,94645.91
2022-07-28T19:03:37.489Z,94634.78
2022-07-28T19:05:41.731Z,94640.25
2022-07-28T19:07:45.796Z,94644.38
2022-07-28T19:09:47.455Z,94648.38
2022-07-28T19:11:49.104Z,94647.16
2022-07-28T19:13:50.953Z,94647.91
2022-07-28T19:15:52.694Z,94640.06
2022-07-28T19:18:11.357Z,94659.34
2022-07-28T19:20:13.751Z,94666.50
2022-07-28T19:22:15.497Z,94669.53
2022-07-28T19:24:18.083Z,94673.28
2022-07-28T19:26:20.330Z,94682.16
2022-07-28T19:28:22.385Z,94689.28
2022-07-28T19:30:24.129Z,94699.72
2022-07-28T19:32:25.850Z,94705.41
2022-07-28T19:34:27.908Z,94718.31
2022-07-28T19:36:29.846Z,94722.09
2022-07-28T19:38:31.475Z,94726.88
2022-07-28T19:40:33.223Z,94734.81
2022-07-28T19:42:35.301Z,94733.25
2022-07-28T19:44:38.167Z,94740.69
2022-07-28T19:46:40.470Z,94746.97
2022-07-28T19:48:42.233Z,94750.50
2022-07-28T19:50:50.979Z,94757.94
2022-07-28T19:52:52.889Z,94762.72
2022-07-28T19:54:55.794Z,94760.31
2022-07-28T19:56:57.483Z,94754.38
2022-07-28T19:58:59.327Z,94760.88
2022-07-28T20:01:01.443Z,94762.03
2022-07-28T20:03:04.138Z,94757.72
2022-07-28T20:05:25.843Z,94761.41
2022-07-28T20:07:27.475Z,94771.97
2022-07-28T20:09:29.156Z,94774.78
2022-07-28T20:11:32.950Z,94784.53
2022-07-28T20:13:34.889Z,94781.06
2022-07-28T20:15:38.808Z,94776.56
2022-07-28T20:17:41.482Z,94784.34
2022-07-28T20:19:43.166Z,94788.19
2022-07-28T20:21:44.805Z,94776.38
2022-07-28T20:23:46.457Z,94785.88
2022-07-28T20:25:48.200Z,94789.94
2022-07-28T20:27:49.852Z,94793.06
2022-07-28T20:29:51.470Z,94801.19
2022-07-28T20:31:53.185Z,94800.63
2022-07-28T20:33:55.848Z,94813.75
2022-07-28T20:35:57.478Z,94814.53
2022-07-28T20:37:59.216Z,94824.28
2022-07-28T20:40:00.968Z,94827.78
2022-07-28T20:42:04.365Z,94826.25
2022-07-28T20:44:29.791Z,94835.81
2022-07-28T20:46:27.887Z,94832.91
2022-07-28T20:48:29.698Z,94832.44
2022-07-28T20:50:31.354Z,94830.34
2022-07-28T20:52:34.040Z,94841.25
2022-07-28T20:54:35.826Z,94842.19
2022-07-28T20:56:37.681Z,94841.13
2022-07-28T20:58:39.499Z,94845.44
2022-07-28T21:00:41.151Z,94844.16
2022-07-28T21:02:42.948Z,94841.00
2022-07-28T21:04:44.601Z,94840.78
2022-07-28T21:06:50.126Z,94846.50
2022-07-28T21:08:54.872Z,94847.88
2022-07-28T21:11:00.496Z,94848.09
2022-07-28T21:13:02.209Z,94856.56
2022-07-28T21:15:08.172Z,94869.91
2022-07-28T21:17:09.878Z,94866.31
2022-07-28T21:19:11.598Z,94859.03
2022-07-28T21:21:13.417Z,94845.44
2022-07-28T21:23:15.107Z,94844.50
2022-07-28T21:25:16.943Z,94838.59
2022-07-28T21:27:19.251Z,94842.88
2022-07-28T21:31:21.710Z,94837.78
2022-07-28T21:33:23.521Z,94830.81
2022-07-28T21:35:25.313Z,94819.75
2022-07-28T21:37:26.962Z,94827.75
2022-07-28T21:39:28.658Z,94829.38
2022-07-28T21:41:36.521Z,94825.22
2022-07-28T21:43:38.860Z,94823.59
2022-07-28T21:45:40.583Z,94828.13
2022-07-28T21:47:42.419Z,94825.34
2022-07-28T21:49:44.200Z,94829.19
2022-07-28T21:51:46.322Z,94831.38
2022-07-28T21:53:48.968Z,94820.25
2022-07-28T21:55:55.399Z,94822.91
2022-07-28T21:57:57.057Z,94825.59
2022-07-28T21:59:58.772Z,94830.56
2022-07-28T22:02:00.613Z,94829.66
2022-07-28T22:04:02.227Z,94823.25
2022-07-28T22:06:04.662Z,94819.06
2022-07-28T22:08:06.395Z,94829.81
2022-07-28T22:10:08.374Z,94827.50
2022-07-28T22:12:10.218Z,94830.53
2022-07-28T22:14:12.380Z,94829.59
2022-07-28T22:16:14.277Z,94834.84
2022-07-28T22:18:20.922Z,94823.94
2022-07-28T22:20:22.625Z,94814.88
2022-07-28T22:22:24.254Z,94814.31
2022-07-28T22:24:26.330Z,94818.38
2022-07-28T22:26:28.007Z,94818.47
2022-07-28T22:28:30.629Z,94821.75
2022-07-28T22:30:32.908Z,94814.31
2022-07-28T22:32:34.570Z,94808.97
2022-07-28T22:34:36.353Z,94813.72
2022-07-28T22:36:38.627Z,94806.78
2022-07-28T22:38:40.326Z,94804.66
2022-07-28T22:40:41.991Z,94799.31
2022-07-28T22:42:44.595Z,94795.34
2022-07-28T22:44:46.260Z,94800.09
2022-07-28T22:46:48.016Z,94809.97
2022-07-28T22:48:49.868Z,94803.59
2022-07-28T22:50:51.661Z,94807.66
2022-07-28T22:52:53.450Z,94802.06
2022-07-28T22:57:15.340Z,94804.09
2022-07-28T22:59:17.822Z,94802.00
2022-07-28T23:01:19.823Z,94806.75
2022-07-28T23:03:22.380Z,94793.41
2022-07-28T23:05:24.195Z,94800.34
2022-07-28T23:07:53.148Z,94791.75
2022-07-28T23:09:47.635Z,94789.69
2022-07-28T23:11:55.559Z,94793.16
2022-07-28T23:13:57.678Z,94782.25
2022-07-28T23:15:59.542Z,94786.78
2022-07-28T23:18:01.316Z,94774.03
2022-07-28T23:20:05.276Z,94775.31
2022-07-28T23:22:06.992Z,94781.91
2022-07-28T23:24:08.881Z,94781.78
2022-07-28T23:26:10.649Z,94772.81
2022-07-28T23:28:13.783Z,94766.28
2022-07-28T23:30:15.584Z,94765.22
2022-07-28T23:32:17.398Z,94769.28
2022-07-28T23:34:19.366Z,94768.13
2022-07-28T23:36:26.726Z,94767.41
2022-07-28T23:38:29.292Z,94777.81
2022-07-28T23:40:31.161Z,94780.69
2022-07-28T23:42:33.051Z,94777.44
2022-07-28T23:44:34.923Z,94779.66
2022-07-28T23:46:36.684Z,94779.34
2022-07-28T23:48:40.162Z,94777.41
2022-07-28T23:50:41.952Z,94779.97
2022-07-28T23:52:43.782Z,94786.94
2022-07-28T23:54:45.559Z,94787.28
2022-07-28T23:56:51.366Z,94797.63
2022-07-28T23:58:53.148Z,94799.59
